Time;durP1;ratioP1;P1;durP2;ratioP2;P2;SDS_P1;SDS_P2;PMS_P1;PMS_P2;Temp;Humidity;BMP_temperature;BMP_pressure;BME280_temperature;BME280_humidity;BME280_pressure;Samples;Min_cycle;Max_cycle;Signal;HPM_P1;HPM_P2
2024/01/18 00:01:34;;;;;;;28.35;12.73;;;-5.30;99.90;;;;;;5101971;28;20062;-66
2024/01/18 00:04:03;;;;;;;27.80;12.38;;;-5.30;99.90;;;;;;5096255;28;20044;-67
2024/01/18 00:06:34;;;;;;;34.33;13.20;;;-5.40;99.90;;;;;;5084660;28;20048;-67
2024/01/18 00:09:02;;;;;;;36.13;13.27;;;-5.40;99.90;;;;;;5083525;28;20040;-66
2024/01/18 00:11:30;;;;;;;36.97;13.70;;;-5.40;99.90;;;;;;5069557;28;20053;-66
2024/01/18 00:13:58;;;;;;;30.88;12.27;;;-5.40;99.90;;;;;;5068901;28;20052;-67
2024/01/18 00:16:25;;;;;;;37.38;13.35;;;-5.40;99.90;;;;;;5085301;28;20040;-67
2024/01/18 00:18:53;;;;;;;24.30;11.07;;;-5.40;99.90;;;;;;5088288;28;20040;-67
2024/01/18 00:21:21;;;;;;;29.67;12.07;;;-5.40;99.90;;;;;;5094094;28;20047;-64
2024/01/18 00:23:50;;;;;;;29.70;11.27;;;-5.40;99.90;;;;;;5087425;28;20048;-64
2024/01/18 00:26:19;;;;;;;31.02;10.77;;;-5.40;99.90;;;;;;5075199;28;20048;-64
2024/01/18 00:28:46;;;;;;;24.52;11.20;;;-5.40;99.90;;;;;;5078520;28;20487;-65
2024/01/18 00:31:14;;;;;;;22.73;9.88;;;-5.50;99.90;;;;;;5088805;28;20044;-63
2024/01/18 00:33:42;;;;;;;21.20;10.60;;;-5.50;99.90;;;;;;5092317;28;20055;-62
2024/01/18 00:36:10;;;;;;;26.35;11.20;;;-5.50;99.90;;;;;;5099527;28;20052;-64
2024/01/18 00:38:38;;;;;;;26.63;11.32;;;-5.50;99.90;;;;;;5106307;28;20395;-61
2024/01/18 00:41:05;;;;;;;26.20;10.32;;;-5.50;99.90;;;;;;5081671;28;20040;-62
2024/01/18 00:43:33;;;;;;;22.52;9.70;;;-5.60;99.90;;;;;;5074970;28;20056;-62
2024/01/18 00:46:04;;;;;;;26.50;11.18;;;-5.60;99.90;;;;;;5111235;28;20051;-63
2024/01/18 00:48:31;;;;;;;28.48;10.57;;;-5.60;99.90;;;;;;5108077;28;20043;-62
2024/01/18 00:51:00;;;;;;;26.30;12.20;;;-5.60;99.90;;;;;;5091782;28;20056;-62
2024/01/18 00:53:28;;;;;;;24.70;11.80;;;-5.60;99.90;;;;;;5092482;28;20089;-63
2024/01/18 00:55:55;;;;;;;30.77;11.40;;;-5.70;99.90;;;;;;5098954;28;20090;-63
2024/01/18 00:58:24;;;;;;;24.20;10.63;;;-5.70;99.90;;;;;;5091481;28;20479;-65
2024/01/18 01:00:52;;;;;;;25.02;11.68;;;-5.70;99.90;;;;;;5079245;28;20051;-63
2024/01/18 01:03:20;;;;;;;25.45;10.82;;;-5.70;99.90;;;;;;5075419;28;20086;-63
2024/01/18 01:05:47;;;;;;;27.77;11.25;;;-5.70;99.90;;;;;;5088921;28;20396;-63
2024/01/18 01:08:16;;;;;;;24.23;10.52;;;-5.70;99.90;;;;;;5076617;28;20055;-66
2024/01/18 01:10:43;;;;;;;29.05;12.23;;;-5.70;99.90;;;;;;5085989;28;20037;-63
2024/01/18 01:13:11;;;;;;;24.48;10.70;;;-5.70;99.90;;;;;;5070913;28;20044;-63
2024/01/18 01:15:39;;;;;;;25.98;11.05;;;-5.70;99.90;;;;;;5089746;28;20098;-67
2024/01/18 01:18:06;;;;;;;29.92;11.82;;;-5.70;99.90;;;;;;5090963;28;20052;-64
2024/01/18 01:20:34;;;;;;;20.73;9.52;;;-5.70;99.90;;;;;;5069780;28;20392;-64
2024/01/18 01:23:03;;;;;;;24.30;10.88;;;-5.80;99.90;;;;;;5071012;28;20511;-62
2024/01/18 01:25:31;;;;;;;25.58;9.63;;;-5.80;99.90;;;;;;5085077;28;20051;-64
2024/01/18 01:27:58;;;;;;;29.10;10.68;;;-5.80;99.90;;;;;;5074037;28;20040;-67
2024/01/18 01:30:26;;;;;;;26.30;11.10;;;-5.80;99.90;;;;;;5084766;28;20396;-64
2024/01/18 01:32:54;;;;;;;24.05;11.18;;;-5.90;99.90;;;;;;5074911;28;20059;-65
2024/01/18 01:35:22;;;;;;;21.95;10.27;;;-5.90;99.90;;;;;;5100829;28;20040;-66
2024/01/18 01:37:49;;;;;;;24.20;9.73;;;-5.90;99.90;;;;;;5108554;28;20047;-68
2024/01/18 01:40:18;;;;;;;22.33;10.05;;;-5.90;99.90;;;;;;5090731;28;20048;-65
2024/01/18 01:42:46;;;;;;;23.58;10.90;;;-6.00;99.90;;;;;;5088584;28;20044;-64
2024/01/18 01:45:14;;;;;;;22.38;10.05;;;-6.00;99.90;;;;;;5101801;28;20051;-62
2024/01/18 01:47:41;;;;;;;19.45;9.43;;;-6.00;99.90;;;;;;5109328;28;20040;-65
2024/01/18 01:50:10;;;;;;;24.13;10.20;;;-6.00;99.90;;;;;;5090479;28;20048;-66
2024/01/18 01:52:39;;;;;;;29.07;11.50;;;-6.00;99.90;;;;;;5090599;28;20040;-66
2024/01/18 01:55:08;;;;;;;31.02;11.25;;;-6.00;99.90;;;;;;5090235;28;20059;-67
2024/01/18 01:57:43;;;;;;;23.63;10.73;;;-5.90;99.90;;;;;;5072749;28;20056;-62
2024/01/18 02:00:14;;;;;;;29.92;11.40;;;-5.90;99.90;;;;;;5084112;28;20208;-63
2024/01/18 02:02:43;;;;;;;23.25;10.30;;;-5.90;99.90;;;;;;5073587;28;20399;-63
2024/01/18 02:05:11;;;;;;;22.65;9.75;;;-5.90;99.90;;;;;;5093632;28;20040;-63
2024/01/18 02:07:39;;;;;;;19.33;9.30;;;-5.90;99.90;;;;;;5086456;28;20056;-64
2024/01/18 02:10:08;;;;;;;24.10;9.18;;;-6.00;99.90;;;;;;5085759;28;20044;-62
2024/01/18 02:12:36;;;;;;;26.45;10.32;;;-6.00;99.90;;;;;;5091277;28;20479;-63
2024/01/18 02:15:05;;;;;;;22.63;9.20;;;-6.00;99.90;;;;;;5110193;28;20054;-65
2024/01/18 02:17:33;;;;;;;22.35;10.90;;;-6.00;99.90;;;;;;5087338;28;20040;-67
2024/01/18 02:20:00;;;;;;;25.63;10.60;;;-6.00;99.90;;;;;;5090070;28;20040;-64
2024/01/18 02:22:31;;;;;;;24.10;9.90;;;-6.00;99.90;;;;;;5090354;28;20079;-64
2024/01/18 02:25:21;;;;;;;18.33;9.38;;;-6.00;99.90;;;;;;5089485;28;20392;-66
2024/01/18 02:27:49;;;;;;;;;;;-6.00;99.90;;;;;;5074461;28;20040;-67
2024/01/18 02:30:17;;;;;;;25.42;9.50;;;-6.00;99.90;;;;;;5080362;28;19920;-63
2024/01/18 02:32:46;;;;;;;19.75;8.77;;;-6.00;99.90;;;;;;5077282;28;20047;-67
2024/01/18 02:35:15;;;;;;;31.75;10.85;;;-6.00;99.90;;;;;;5102811;28;20046;-67
2024/01/18 02:37:43;;;;;;;18.75;9.32;;;-6.00;99.90;;;;;;5091222;28;20047;-68
2024/01/18 02:40:11;;;;;;;26.80;10.77;;;-6.00;99.90;;;;;;5093008;28;20510;-63
2024/01/18 02:42:38;;;;;;;26.13;11.30;;;-6.00;99.90;;;;;;5076596;28;20048;-63
2024/01/18 02:45:08;;;;;;;19.40;9.15;;;-6.00;99.90;;;;;;5071776;28;20055;-63
2024/01/18 02:47:36;;;;;;;24.30;10.07;;;-6.10;99.90;;;;;;5092386;28;20036;-62
2024/01/18 02:50:05;;;;;;;24.13;10.57;;;-6.10;99.90;;;;;;5091324;28;20052;-65
2024/01/18 02:52:33;;;;;;;19.33;8.85;;;-6.10;99.90;;;;;;5092838;28;20048;-63
2024/01/18 02:55:01;;;;;;;23.40;9.73;;;-6.10;99.90;;;;;;5090838;28;20044;-61
2024/01/18 02:57:29;;;;;;;17.90;8.70;;;-6.10;99.90;;;;;;5090527;28;20048;-62
2024/01/18 02:59:56;;;;;;;17.55;7.18;;;-6.10;99.90;;;;;;5091964;28;20048;-68
2024/01/18 03:02:24;;;;;;;18.75;8.38;;;-6.10;99.90;;;;;;5091893;28;20048;-67
2024/01/18 03:04:52;;;;;;;14.75;7.18;;;-6.10;99.90;;;;;;5086564;28;20047;-61
2024/01/18 03:07:20;;;;;;;15.10;7.03;;;-6.10;99.90;;;;;;5102738;28;20044;-67
2024/01/18 03:09:48;;;;;;;17.45;8.65;;;-6.20;99.90;;;;;;5092867;28;20039;-66
2024/01/18 03:12:15;;;;;;;20.38;8.48;;;-6.20;99.90;;;;;;5088308;28;20055;-61
2024/01/18 03:14:43;;;;;;;20.98;8.30;;;-6.20;99.90;;;;;;5069861;28;20056;-64
2024/01/18 03:17:11;;;;;;;19.27;7.72;;;-6.20;99.90;;;;;;5081034;28;20052;-66
2024/01/18 03:19:38;;;;;;;17.08;9.25;;;-6.20;99.90;;;;;;5101949;28;20399;-65
2024/01/18 03:22:06;;;;;;;22.20;8.98;;;-6.20;99.90;;;;;;5083680;28;20051;-65
2024/01/18 03:24:33;;;;;;;17.63;9.70;;;-6.20;99.90;;;;;;5071707;28;20053;-63
2024/01/18 03:27:01;;;;;;;29.58;8.77;;;-6.20;99.90;;;;;;5085255;28;20059;-61
2024/01/18 03:29:29;;;;;;;23.00;9.48;;;-6.10;99.90;;;;;;5111677;27;20051;-61
2024/01/18 03:31:57;;;;;;;20.58;9.00;;;-6.10;99.90;;;;;;5111065;28;20052;-65
2024/01/18 03:34:25;;;;;;;20.55;8.52;;;-6.00;99.90;;;;;;5079351;28;20051;-67
2024/01/18 03:36:53;;;;;;;18.40;8.45;;;-5.90;99.90;;;;;;5078857;28;20056;-65
2024/01/18 03:39:20;;;;;;;18.33;8.68;;;-5.90;99.90;;;;;;5079962;28;20047;-66
2024/01/18 03:41:48;;;;;;;22.98;9.48;;;-5.80;99.90;;;;;;5070104;28;20055;-65
2024/01/18 03:44:16;;;;;;;17.83;8.30;;;-5.80;99.90;;;;;;5080673;28;20064;-64
2024/01/18 03:46:43;;;;;;;24.10;9.43;;;-5.70;99.90;;;;;;5076084;28;20047;-60
2024/01/18 03:49:11;;;;;;;14.43;7.63;;;-5.70;99.90;;;;;;5091124;28;20044;-59
2024/01/18 03:51:39;;;;;;;18.90;8.50;;;-5.70;99.90;;;;;;5091355;28;20503;-61
2024/01/18 03:54:06;;;;;;;13.25;7.22;;;-5.70;99.90;;;;;;5090460;28;20391;-60
2024/01/18 03:56:34;;;;;;;20.67;8.63;;;-5.70;99.90;;;;;;5091586;28;20047;-59
2024/01/18 03:59:02;;;;;;;16.98;7.00;;;-5.70;99.90;;;;;;5091154;28;20040;-59
2024/01/18 04:01:33;;;;;;;19.73;8.48;;;-5.70;99.90;;;;;;5089745;28;20613;-61
2024/01/18 04:04:02;;;;;;;18.88;7.32;;;-5.80;99.90;;;;;;5093355;28;20040;-64
2024/01/18 04:06:30;;;;;;;20.25;8.90;;;-5.80;99.90;;;;;;5110072;28;20047;-67
2024/01/18 04:08:58;;;;;;;18.20;8.55;;;-5.90;99.90;;;;;;5090583;28;20059;-64
2024/01/18 04:11:26;;;;;;;17.58;8.00;;;-5.90;99.90;;;;;;5091980;28;20056;-67
2024/01/18 04:13:53;;;;;;;14.80;7.45;;;-5.90;99.90;;;;;;5091589;28;20048;-60
2024/01/18 04:16:21;;;;;;;15.38;8.00;;;-5.90;99.90;;;;;;5088023;28;20051;-61
2024/01/18 04:18:48;;;;;;;17.00;8.00;;;-5.90;99.90;;;;;;5077444;28;20051;-63
2024/01/18 04:21:16;;;;;;;18.42;8.07;;;-5.90;99.90;;;;;;5091342;28;20040;-60
2024/01/18 04:23:44;;;;;;;13.68;7.60;;;-6.00;99.90;;;;;;5090096;28;20036;-61
2024/01/18 04:26:12;;;;;;;18.55;7.97;;;-6.00;99.90;;;;;;5091227;28;20051;-63
2024/01/18 04:28:39;;;;;;;20.00;8.50;;;-6.00;99.90;;;;;;5091127;28;20524;-61
2024/01/18 04:31:07;;;;;;;20.83;8.80;;;-6.00;99.90;;;;;;5090745;28;20045;-61
2024/01/18 04:33:35;;;;;;;19.73;8.30;;;-6.00;99.90;;;;;;5091162;28;20048;-66
2024/01/18 04:36:02;;;;;;;16.58;8.18;;;-6.00;99.90;;;;;;5107451;28;20048;-62
2024/01/18 04:38:30;;;;;;;18.08;8.88;;;-6.10;99.90;;;;;;5093815;28;20613;-60
2024/01/18 04:40:58;;;;;;;16.58;8.55;;;-6.10;99.90;;;;;;5091275;28;20048;-62
2024/01/18 04:43:25;;;;;;;18.45;9.55;;;-6.10;99.90;;;;;;5110735;28;20050;-60
2024/01/18 04:45:53;;;;;;;26.65;9.38;;;-6.10;99.90;;;;;;5111272;28;20048;-64
2024/01/18 04:48:22;;;;;;;17.23;8.43;;;-6.10;99.90;;;;;;5094295;28;20055;-60
2024/01/18 04:50:50;;;;;;;16.35;8.40;;;-6.10;99.90;;;;;;5091575;28;20032;-63
2024/01/18 04:53:18;;;;;;;21.63;8.85;;;-6.20;99.90;;;;;;5091290;28;20040;-60
2024/01/18 04:55:45;;;;;;;18.08;8.02;;;-6.20;99.90;;;;;;5091019;28;20048;-58
2024/01/18 04:58:13;;;;;;;17.88;8.13;;;-6.20;99.90;;;;;;5091098;28;20044;-59
2024/01/18 05:00:41;;;;;;;18.05;8.20;;;-6.30;99.90;;;;;;5091104;28;20403;-59
2024/01/18 05:03:08;;;;;;;18.42;8.63;;;-6.30;99.90;;;;;;5089238;28;20032;-59
2024/01/18 05:05:37;;;;;;;18.92;7.70;;;-6.30;99.90;;;;;;5103841;28;20036;-59
2024/01/18 05:08:07;;;;;;;24.50;7.40;;;-6.40;99.90;;;;;;5097554;28;20518;-59
2024/01/18 05:10:34;;;;;;;21.08;9.02;;;-6.30;99.90;;;;;;5091122;28;20040;-59
2024/01/18 05:13:02;;;;;;;19.55;7.95;;;-6.40;99.90;;;;;;5090790;28;20052;-58
2024/01/18 05:15:30;;;;;;;21.10;9.15;;;-6.40;99.90;;;;;;5091166;28;20044;-66
2024/01/18 05:17:59;;;;;;;18.90;8.35;;;-6.40;99.90;;;;;;5092091;28;20048;-66
2024/01/18 05:20:28;;;;;;;20.40;9.20;;;-6.30;99.90;;;;;;5111292;28;20040;-61
2024/01/18 05:22:56;;;;;;;15.05;8.50;;;-6.30;99.90;;;;;;5114855;28;20048;-67
2024/01/18 05:25:24;;;;;;;17.52;8.35;;;-6.40;99.90;;;;;;5114827;28;20386;-63
2024/01/18 05:27:52;;;;;;;22.08;9.43;;;-6.30;99.90;;;;;;5103270;28;20056;-62
2024/01/18 05:30:21;;;;;;;18.30;8.48;;;-6.40;99.90;;;;;;5094442;28;20043;-61
2024/01/18 05:32:49;;;;;;;20.88;8.68;;;-6.40;99.90;;;;;;5093641;28;20059;-65
2024/01/18 05:35:16;;;;;;;17.75;9.65;;;-6.40;99.90;;;;;;5104591;28;20040;-59
2024/01/18 05:37:44;;;;;;;20.02;8.82;;;-6.50;99.90;;;;;;5108373;28;20059;-61
2024/01/18 05:40:12;;;;;;;19.73;7.57;;;-6.50;99.90;;;;;;5092748;28;20051;-64
2024/01/18 05:42:39;;;;;;;21.73;8.75;;;-6.60;99.90;;;;;;5083315;28;20044;-64
2024/01/18 05:45:08;;;;;;;17.38;8.65;;;-6.50;99.90;;;;;;5081289;28;20636;-62
2024/01/18 05:47:35;;;;;;;18.30;9.02;;;-6.50;99.90;;;;;;5088344;28;20055;-64
2024/01/18 05:50:05;;;;;;;23.63;9.40;;;-6.60;99.90;;;;;;5088455;28;20043;-61
2024/01/18 05:52:34;;;;;;;18.77;9.48;;;-6.50;99.90;;;;;;5090250;28;20055;-66
2024/01/18 05:55:02;;;;;;;22.30;9.52;;;-6.50;99.90;;;;;;5090559;28;20048;-58
2024/01/18 05:57:30;;;;;;;19.92;9.15;;;-6.50;99.90;;;;;;5101474;28;20055;-60
2024/01/18 05:59:58;;;;;;;20.27;9.32;;;-6.50;99.90;;;;;;5090112;28;20480;-60
2024/01/18 06:02:26;;;;;;;23.17;9.43;;;-6.20;99.90;;;;;;5074262;28;20052;-66
2024/01/18 06:04:53;;;;;;;22.17;9.73;;;-6.50;99.90;;;;;;5081070;28;20040;-64
2024/01/18 06:07:22;;;;;;;20.02;9.18;;;-6.60;99.90;;;;;;5105421;28;20044;-61
2024/01/18 06:09:50;;;;;;;21.52;10.70;;;-6.50;99.90;;;;;;5087334;28;20051;-61
2024/01/18 06:12:20;;;;;;;21.30;9.27;;;-6.60;99.90;;;;;;5092204;28;20059;-61
2024/01/18 06:14:47;;;;;;;16.33;8.45;;;-6.60;99.90;;;;;;5086816;28;20395;-58
2024/01/18 06:17:15;;;;;;;21.35;10.05;;;-6.60;99.90;;;;;;5089841;28;20047;-62
2024/01/18 06:19:42;;;;;;;19.60;10.45;;;-6.60;99.90;;;;;;5087833;28;20525;-60
2024/01/18 06:22:10;;;;;;;19.73;9.40;;;-6.60;99.90;;;;;;5089615;28;20051;-63
2024/01/18 06:24:38;;;;;;;18.10;8.70;;;-6.60;99.90;;;;;;5089874;28;20107;-62
2024/01/18 06:27:06;;;;;;;19.80;9.30;;;-6.60;99.90;;;;;;5088914;28;20066;-60
2024/01/18 06:29:35;;;;;;;16.08;9.05;;;-6.60;99.90;;;;;;5088249;28;20040;-62
2024/01/18 06:32:03;;;;;;;23.40;11.15;;;-6.70;99.90;;;;;;5085944;28;20055;-59
2024/01/18 06:34:33;;;;;;;16.33;9.25;;;-6.70;99.90;;;;;;5090592;28;20043;-61
2024/01/18 06:37:01;;;;;;;18.05;9.18;;;-6.70;99.90;;;;;;5109104;28;20492;-58
2024/01/18 06:39:29;;;;;;;19.65;8.73;;;-6.70;99.90;;;;;;5090168;28;20040;-59
2024/01/18 06:41:56;;;;;;;17.05;9.38;;;-6.70;99.90;;;;;;5089872;28;20055;-65
2024/01/18 06:44:24;;;;;;;24.65;10.60;;;-6.70;99.90;;;;;;5093008;28;20059;-62
2024/01/18 06:46:52;;;;;;;20.88;9.93;;;-6.70;99.90;;;;;;5087718;28;20052;-61
2024/01/18 06:49:19;;;;;;;22.60;9.93;;;-6.70;99.90;;;;;;5081509;28;20059;-58
2024/01/18 06:51:47;;;;;;;25.55;10.10;;;-6.70;99.90;;;;;;5087282;28;20055;-59
2024/01/18 06:54:17;;;;;;;23.33;10.75;;;-6.70;99.90;;;;;;5094896;28;20048;-59
2024/01/18 06:56:45;;;;;;;26.92;12.40;;;-6.70;99.90;;;;;;5087343;28;20048;-59
2024/01/18 06:59:16;;;;;;;35.85;12.75;;;-6.70;99.90;;;;;;5085921;28;20066;-59
2024/01/18 07:01:43;;;;;;;25.08;11.70;;;-6.70;99.90;;;;;;5080111;28;20044;-60
2024/01/18 07:04:11;;;;;;;19.08;9.95;;;-6.60;99.90;;;;;;5086910;28;20059;-59
2024/01/18 07:06:39;;;;;;;15.77;9.52;;;-6.80;99.90;;;;;;5082933;28;20044;-61
2024/01/18 07:09:07;;;;;;;23.33;12.48;;;-6.60;99.90;;;;;;5088927;28;20048;-60
2024/01/18 07:11:38;;;;;;;22.80;9.93;;;-6.60;99.90;;;;;;5086095;28;20511;-60
2024/01/18 07:14:05;;;;;;;26.25;13.00;;;-6.60;99.90;;;;;;5095622;28;20051;-59
2024/01/18 07:16:33;;;;;;;25.02;12.27;;;-6.50;99.90;;;;;;5088905;28;20051;-59
2024/01/18 07:19:01;;;;;;;22.80;12.02;;;-6.50;99.90;;;;;;5085454;28;20036;-60
2024/01/18 07:21:29;;;;;;;16.58;9.68;;;-6.50;99.90;;;;;;5101656;28;20043;-60
2024/01/18 07:23:56;;;;;;;21.10;11.43;;;-6.50;99.90;;;;;;5080392;28;20051;-59
2024/01/18 07:26:24;;;;;;;24.15;10.70;;;-6.60;99.90;;;;;;5081123;28;20048;-64
2024/01/18 07:28:52;;;;;;;22.77;9.93;;;-6.60;99.90;;;;;;5085193;28;20047;-61
2024/01/18 07:31:20;;;;;;;21.38;9.48;;;-6.60;99.90;;;;;;5086916;28;20223;-66
2024/01/18 07:33:50;;;;;;;23.38;9.82;;;-6.70;99.90;;;;;;5079589;28;20480;-59
2024/01/18 07:36:18;;;;;;;20.27;10.18;;;-6.70;99.90;;;;;;5102710;28;20044;-59
2024/01/18 07:38:46;;;;;;;22.80;11.00;;;-6.70;99.90;;;;;;5105926;28;20058;-62
2024/01/18 07:41:14;;;;;;;18.00;9.85;;;-6.70;99.90;;;;;;5086189;28;20055;-61
2024/01/18 07:43:41;;;;;;;24.10;11.77;;;-6.70;99.90;;;;;;5101020;28;20050;-59
2024/01/18 07:46:09;;;;;;;20.92;10.93;;;-6.70;99.90;;;;;;5106187;28;20055;-61
2024/01/18 07:48:36;;;;;;;23.02;10.93;;;-6.70;99.90;;;;;;5088551;28;20044;-61
2024/01/18 07:51:04;;;;;;;20.98;9.80;;;-6.70;99.90;;;;;;5081841;28;20040;-62
2024/01/18 07:53:32;;;;;;;19.98;11.55;;;-6.70;99.90;;;;;;5088410;28;20039;-60
2024/01/18 07:55:59;;;;;;;22.70;11.88;;;-6.70;99.90;;;;;;5088971;28;20044;-64
2024/01/18 07:58:27;;;;;;;26.30;12.90;;;-6.70;99.90;;;;;;5088150;28;20044;-59
2024/01/18 08:00:55;;;;;;;19.58;10.45;;;-6.70;99.90;;;;;;5086135;28;20036;-62
2024/01/18 08:03:23;;;;;;;24.02;11.20;;;-6.70;99.90;;;;;;5090090;28;20591;-61
2024/01/18 08:05:51;;;;;;;25.25;12.13;;;-6.60;99.90;;;;;;5099612;28;20039;-60
2024/01/18 08:08:18;;;;;;;28.65;12.98;;;-6.70;99.90;;;;;;5098815;28;20381;-60
2024/01/18 08:10:46;;;;;;;64.40;17.92;;;-6.70;99.90;;;;;;5087645;28;20499;-60
2024/01/18 08:13:13;;;;;;;32.17;13.85;;;-6.70;99.90;;;;;;5086262;28;20056;-60
2024/01/18 08:15:41;;;;;;;32.03;12.52;;;-6.60;99.90;;;;;;5073673;28;20051;-59
2024/01/18 08:18:09;;;;;;;24.02;12.75;;;-6.70;99.90;;;;;;5069604;28;20063;-60
2024/01/18 08:20:37;;;;;;;25.55;12.55;;;-6.60;99.90;;;;;;5068017;28;20131;-61
2024/01/18 08:23:04;;;;;;;23.55;13.52;;;-6.60;99.90;;;;;;5090426;28;20055;-60
2024/01/18 08:25:32;;;;;;;57.70;18.63;;;-6.60;99.90;;;;;;5089411;28;20044;-59
2024/01/18 08:28:00;;;;;;;52.28;19.08;;;-6.60;99.90;;;;;;5071246;28;20039;-61
2024/01/18 08:30:28;;;;;;;35.30;14.98;;;-6.60;99.90;;;;;;5084897;28;20616;-61
2024/01/18 08:32:55;;;;;;;42.70;15.30;;;-6.60;99.90;;;;;;5091122;28;20051;-63
2024/01/18 08:35:23;;;;;;;34.95;15.02;;;-6.60;99.90;;;;;;5054766;28;20033;-70
2024/01/18 08:37:52;;;;;;;42.63;15.75;;;-6.50;99.90;;;;;;5073070;28;20051;-69
2024/01/18 08:40:20;;;;;;;43.97;14.30;;;-6.60;99.90;;;;;;5088038;28;20044;-67
2024/01/18 08:42:48;;;;;;;37.45;14.98;;;-6.60;99.90;;;;;;5087361;28;20060;-68
2024/01/18 08:45:16;;;;;;;32.05;14.57;;;-6.60;99.90;;;;;;5087336;28;20040;-67
2024/01/18 08:47:44;;;;;;;37.75;15.63;;;-6.50;99.90;;;;;;5087758;28;20052;-65
2024/01/18 08:50:14;;;;;;;43.15;18.35;;;-6.50;99.90;;;;;;5072645;28;20044;-68
2024/01/18 08:52:43;;;;;;;63.42;23.40;;;-6.50;99.90;;;;;;5080246;28;20059;-68
2024/01/18 08:55:11;;;;;;;61.33;24.95;;;-6.40;99.90;;;;;;5092036;28;20069;-68
2024/01/18 08:57:38;;;;;;;150.05;47.10;;;-6.30;99.90;;;;;;5090567;28;20059;-68
2024/01/18 09:00:07;;;;;;;142.48;47.33;;;-6.30;99.90;;;;;;5091772;28;20048;-69
2024/01/18 09:02:34;;;;;;;54.08;25.10;;;-6.20;99.90;;;;;;5091628;28;20040;-69
2024/01/18 09:05:02;;;;;;;51.05;22.95;;;-6.10;99.90;;;;;;5086357;28;20048;-68
2024/01/18 09:07:30;;;;;;;59.25;23.70;;;-6.00;99.90;;;;;;5073577;28;20052;-69
2024/01/18 09:09:57;;;;;;;48.00;22.33;;;-6.00;99.90;;;;;;5091359;28;20396;-69
2024/01/18 09:12:26;;;;;;;61.25;26.67;;;-5.90;99.90;;;;;;5091747;28;20051;-71
2024/01/18 09:14:54;;;;;;;73.60;26.38;;;-5.90;99.90;;;;;;5091027;28;20201;-68
2024/01/18 09:17:21;;;;;;;58.20;24.58;;;-5.80;99.90;;;;;;5092310;28;20047;-66
2024/01/18 09:19:49;;;;;;;60.53;26.45;;;-5.70;99.90;;;;;;5092507;28;20040;-62
2024/01/18 09:22:18;;;;;;;;;;;-5.70;99.90;;;;;;5089058;28;20056;-60
2024/01/18 09:24:46;;;;;;;63.38;26.73;;;-5.50;99.90;;;;;;5089882;28;19927;-62
2024/01/18 09:27:14;;;;;;;59.88;26.65;;;-5.50;99.90;;;;;;5072871;28;20047;-62
2024/01/18 09:29:41;;;;;;;60.85;22.52;;;-5.40;99.90;;;;;;5091127;28;20040;-60
2024/01/18 09:32:09;;;;;;;46.92;21.20;;;-5.30;99.90;;;;;;5089524;28;20055;-63
2024/01/18 09:34:37;;;;;;;50.03;19.70;;;-5.10;99.90;;;;;;5095348;28;20053;-60
2024/01/18 09:37:04;;;;;;;40.50;18.15;;;-5.00;99.90;;;;;;5069384;28;20048;-66
2024/01/18 09:39:32;;;;;;;34.33;17.58;;;-4.90;99.90;;;;;;5085530;28;20040;-63
2024/01/18 09:42:03;;;;;;;29.90;15.10;;;-4.70;99.90;;;;;;5086961;28;20542;-67
2024/01/18 09:44:31;;;;;;;19.50;9.40;;;-4.60;99.90;;;;;;5084145;28;20043;-64
2024/01/18 09:47:03;;;;;;;17.10;8.27;;;-4.40;99.90;;;;;;5070535;28;20056;-66
2024/01/18 09:49:33;;;;;;;20.00;8.95;;;-4.40;99.90;;;;;;5085281;28;20396;-58
2024/01/18 09:52:01;;;;;;;17.90;7.03;;;-4.20;99.90;;;;;;5091599;28;20396;-58
2024/01/18 09:54:29;;;;;;;11.35;6.55;;;-4.00;99.90;;;;;;5109215;28;20051;-60
2024/01/18 09:57:00;;;;;;;11.25;5.80;;;-3.90;99.90;;;;;;5087827;28;20049;-64
2024/01/18 09:59:29;;;;;;;10.30;5.18;;;-3.80;99.90;;;;;;5086299;28;20063;-61
2024/01/18 10:01:57;;;;;;;11.80;5.80;;;-3.60;99.90;;;;;;5087509;28;20040;-63
2024/01/18 10:04:28;;;;;;;11.43;5.28;;;-3.50;99.90;;;;;;5095482;28;20047;-64
2024/01/18 10:06:56;;;;;;;11.25;5.28;;;-3.40;99.90;;;;;;5088842;28;20044;-59
2024/01/18 10:09:28;;;;;;;10.10;5.75;;;-3.30;99.90;;;;;;5088906;28;20048;-66
2024/01/18 10:11:56;;;;;;;12.87;5.73;;;-3.10;99.90;;;;;;5068137;28;20068;-61
2024/01/18 10:14:44;;;;;;;11.15;5.35;;;-3.00;99.90;;;;;;5084040;28;20054;-62
2024/01/18 10:17:21;;;;;;;10.13;4.80;;;-2.90;99.90;;;;;;5066493;28;20040;-65
2024/01/18 10:19:50;;;;;;;16.40;5.22;;;-2.80;99.90;;;;;;5077976;28;20040;-58
2024/01/18 10:22:21;;;;;;;11.35;4.78;;;-2.70;99.90;;;;;;5076855;28;20050;-59
2024/01/18 10:24:49;;;;;;;8.50;4.82;;;-2.60;99.90;;;;;;5109829;28;20059;-62
2024/01/18 10:27:21;;;;;;;9.40;4.23;;;-2.50;99.90;;;;;;5109554;28;20070;-64
2024/01/18 10:29:50;;;;;;;12.68;6.22;;;-2.40;99.90;;;;;;5089825;28;20040;-65
2024/01/18 10:32:17;;;;;;;13.60;6.68;;;-2.30;99.90;;;;;;5090998;28;20059;-64
2024/01/18 10:34:46;;;;;;;11.95;5.60;;;-2.20;99.90;;;;;;5100264;28;20055;-66
2024/01/18 10:37:17;;;;;;;14.45;6.05;;;-2.20;99.90;;;;;;5069659;28;20047;-67
2024/01/18 10:39:46;;;;;;;12.45;5.55;;;-2.10;99.90;;;;;;5069729;28;20045;-67
2024/01/18 10:42:15;;;;;;;16.40;5.35;;;-2.00;99.90;;;;;;5079476;28;20483;-66
2024/01/18 10:44:45;;;;;;;12.45;5.72;;;-1.90;99.90;;;;;;5083308;28;20040;-66
2024/01/18 10:47:14;;;;;;;16.15;6.45;;;-1.80;99.90;;;;;;5067055;28;20045;-62
2024/01/18 10:49:45;;;;;;;10.70;6.63;;;-1.80;99.90;;;;;;5065169;28;20522;-66
2024/01/18 10:52:13;;;;;;;14.68;5.97;;;-1.70;99.90;;;;;;5070679;28;20055;-61
2024/01/18 10:54:41;;;;;;;10.63;5.25;;;-1.60;99.90;;;;;;5092236;28;20418;-60
2024/01/18 10:57:21;;;;;;;13.18;6.28;;;-1.50;99.90;;;;;;5087989;28;20043;-63
2024/01/18 10:59:52;;;;;;;9.90;5.40;;;-1.50;99.90;;;;;;5048491;28;20057;-61
2024/01/18 11:02:21;;;;;;;14.93;6.50;;;-1.40;99.90;;;;;;5069603;28;20055;-62
2024/01/18 11:04:52;;;;;;;16.35;7.15;;;-1.30;99.90;;;;;;5083701;28;20048;-61
2024/01/18 11:07:22;;;;;;;8.52;5.30;;;-1.30;99.90;;;;;;5070893;28;20039;-62
2024/01/18 11:09:52;;;;;;;13.48;6.68;;;-1.10;99.90;;;;;;5088007;28;20055;-62
2024/01/18 11:12:20;;;;;;;14.68;6.93;;;-1.00;99.90;;;;;;5088724;28;20106;-61
2024/01/18 11:14:48;;;;;;;14.13;7.15;;;-1.00;99.90;;;;;;5081814;28;20040;-61
2024/01/18 11:17:17;;;;;;;13.18;7.22;;;-0.80;99.90;;;;;;5088714;28;20040;-61
2024/01/18 11:19:45;;;;;;;16.20;7.22;;;-0.80;99.90;;;;;;5086090;28;20048;-63
2024/01/18 11:22:24;;;;;;;11.13;7.40;;;-0.70;99.90;;;;;;5085130;28;20056;-66
2024/01/18 11:24:53;;;;;;;15.23;6.93;;;-0.50;99.90;;;;;;5106955;28;20036;-64
2024/01/18 11:27:22;;;;;;;11.32;6.20;;;-0.40;99.90;;;;;;5108437;28;20051;-63
2024/01/18 11:29:50;;;;;;;;;;;-0.30;99.90;;;;;;5089137;28;20055;-65
2024/01/18 11:32:19;;;;;;;12.63;6.97;;;-0.10;99.90;;;;;;5069633;28;20394;-62
2024/01/18 11:34:49;;;;;;;13.43;6.50;;;0.00;99.90;;;;;;5087724;28;20507;-59
2024/01/18 11:37:23;;;;;;;;;;;0.20;99.90;;;;;;5068655;28;20044;-60
2024/01/18 11:39:54;;;;;;;12.27;7.72;;;0.40;99.90;;;;;;5088591;28;20240;-69
2024/01/18 11:42:24;;;;;;;11.88;7.85;;;0.60;99.90;;;;;;5088230;28;20036;-66
2024/01/18 11:45:04;;;;;;;22.67;7.75;;;0.80;99.90;;;;;;5081910;28;20040;-60
2024/01/18 11:47:33;;;;;;;16.73;7.45;;;1.00;99.90;;;;;;5077136;28;20173;-59
2024/01/18 11:50:05;;;;;;;12.27;6.53;;;1.30;99.90;;;;;;5079703;28;20047;-61
2024/01/18 11:52:35;;;;;;;9.65;4.90;;;1.50;99.90;;;;;;5075640;28;20495;-59
2024/01/18 11:55:04;;;;;;;10.68;5.28;;;1.70;99.90;;;;;;5092146;28;20040;-59
2024/01/18 11:57:32;;;;;;;9.00;4.63;;;1.90;99.90;;;;;;5088274;28;20040;-63
2024/01/18 12:00:02;;;;;;;6.38;3.40;;;2.10;99.90;;;;;;5089904;28;20039;-66
2024/01/18 12:02:37;;;;;;;7.65;3.47;;;2.30;99.90;;;;;;5088304;28;20423;-62
2024/01/18 12:05:07;;;;;;;8.00;3.90;;;2.50;99.90;;;;;;5085532;28;20040;-62
2024/01/18 12:07:36;;;;;;;7.40;3.88;;;2.70;99.90;;;;;;5068721;28;20507;-60
2024/01/18 12:10:04;;;;;;;8.77;3.45;;;3.00;99.90;;;;;;5085901;28;20483;-68
2024/01/18 12:12:32;;;;;;;7.30;3.58;;;3.20;99.90;;;;;;5091555;28;20043;-61
2024/01/18 12:15:00;;;;;;;6.40;3.35;;;3.50;99.90;;;;;;5094301;28;20049;-63
2024/01/18 12:17:27;;;;;;;8.90;3.45;;;3.70;99.90;;;;;;5082702;28;20487;-62
2024/01/18 12:19:55;;;;;;;5.13;3.30;;;4.00;99.90;;;;;;5088086;28;20505;-65
2024/01/18 12:22:25;;;;;;;9.52;3.10;;;4.10;99.90;;;;;;5071140;28;20044;-68
2024/01/18 12:24:53;;;;;;;9.57;3.22;;;4.40;99.90;;;;;;5083949;28;20048;-61
2024/01/18 12:27:21;;;;;;;5.60;2.90;;;4.50;99.90;;;;;;5069723;28;20059;-67
2024/01/18 12:29:49;;;;;;;4.63;2.75;;;4.80;99.90;;;;;;5080873;28;20051;-61
2024/01/18 12:32:17;;;;;;;9.75;4.15;;;5.00;99.90;;;;;;5074234;28;20492;-66
2024/01/18 12:34:46;;;;;;;10.25;3.47;;;5.30;99.90;;;;;;5090283;28;20055;-62
2024/01/18 12:37:14;;;;;;;8.02;4.00;;;5.60;99.90;;;;;;5090786;28;20040;-69
2024/01/18 12:39:42;;;;;;;8.32;3.58;;;6.10;99.90;;;;;;5090909;28;20044;-69
2024/01/18 12:42:10;;;;;;;13.65;4.22;;;6.40;99.90;;;;;;5073827;28;20070;-70